createdAt,value
2018-09-10T00:01:41.579Z,67.40
2018-09-10T00:04:10.053Z,67.50
2018-09-10T00:06:38.532Z,67.60
2018-09-10T00:09:08.292Z,66.30
2018-09-10T00:11:37.563Z,66.30
2018-09-10T00:14:05.949Z,65.90
2018-09-10T00:16:34.641Z,66.90
2018-09-10T00:19:03.206Z,66.60
2018-09-10T00:21:31.860Z,66.50
2018-09-10T00:24:00.272Z,66.30
2018-09-10T00:26:28.964Z,66.10
2018-09-10T00:28:57.332Z,66.50
2018-09-10T00:31:25.736Z,67.30
2018-09-10T00:33:54.163Z,65.90
2018-09-10T00:36:22.718Z,66.80
2018-09-10T00:38:51.555Z,66.40
2018-09-10T00:41:20.180Z,65.90
2018-09-10T00:43:48.756Z,66.00
2018-09-10T00:46:17.754Z,65.70
2018-09-10T00:48:46.118Z,65.50
2018-09-10T00:51:14.645Z,65.80
2018-09-10T00:53:43.106Z,65.80
2018-09-10T00:56:11.517Z,65.80
2018-09-10T00:58:40.085Z,65.40
2018-09-10T01:01:09.358Z,66.40
2018-09-10T01:03:37.839Z,66.30
2018-09-10T01:06:06.327Z,65.70
2018-09-10T01:08:34.814Z,66.00
2018-09-10T01:11:03.324Z,65.50
2018-09-10T01:13:31.741Z,65.80
2018-09-10T01:16:00.235Z,66.40
2018-09-10T01:18:28.706Z,65.70
2018-09-10T01:20:57.223Z,65.40
2018-09-10T01:23:25.669Z,65.60
2018-09-10T01:25:54.091Z,65.80
2018-09-10T01:28:22.537Z,66.00
2018-09-10T01:30:51.061Z,65.90
2018-09-10T01:33:25.027Z,66.00
2018-09-10T01:35:53.400Z,65.20
2018-09-10T01:38:21.920Z,65.50
2018-09-10T01:40:50.280Z,65.20
2018-09-10T01:43:19.045Z,65.10
2018-09-10T01:45:47.508Z,65.50
2018-09-10T01:48:16.085Z,65.10
2018-09-10T01:50:44.468Z,65.10
2018-09-10T01:53:13.217Z,66.00
2018-09-10T01:55:41.624Z,65.10
2018-09-10T01:58:10.147Z,65.40
2018-09-10T02:00:38.632Z,65.10
2018-09-10T02:03:07.657Z,65.10
2018-09-10T02:05:36.288Z,65.20
2018-09-10T02:08:04.941Z,66.60
2018-09-10T02:10:33.499Z,65.20
2018-09-10T02:13:02.028Z,66.20
2018-09-10T02:15:30.789Z,67.10
2018-09-10T02:17:59.163Z,65.70
2018-09-10T02:20:27.709Z,65.40
2018-09-10T02:22:56.185Z,65.40
2018-09-10T02:25:24.635Z,66.10
2018-09-10T02:27:53.221Z,65.50
2018-09-10T02:30:21.577Z,65.40
2018-09-10T02:32:50.103Z,66.50
2018-09-10T02:35:18.608Z,65.50
2018-09-10T02:37:47.260Z,65.20
2018-09-10T02:40:15.776Z,65.60
2018-09-10T02:42:44.221Z,65.40
2018-09-10T02:45:12.601Z,65.20
2018-09-10T02:47:41.236Z,65.20
2018-09-10T02:50:09.983Z,65.30
2018-09-10T02:52:38.500Z,65.30
2018-09-10T02:55:07.063Z,65.10
2018-09-10T02:57:35.533Z,65.70
2018-09-10T03:00:04.012Z,65.10
2018-09-10T03:02:32.607Z,66.30
2018-09-10T03:05:01.142Z,65.60
2018-09-10T03:07:29.672Z,65.60
2018-09-10T03:09:58.193Z,65.20
2018-09-10T03:12:26.583Z,65.30
2018-09-10T03:14:55.110Z,65.00
2018-09-10T03:17:23.573Z,65.20
2018-09-10T03:19:51.933Z,65.90
2018-09-10T03:22:20.484Z,65.30
2018-09-10T03:24:49.009Z,65.20
2018-09-10T03:27:17.376Z,65.20
2018-09-10T03:29:46.659Z,65.20
2018-09-10T03:32:15.496Z,65.10
2018-09-10T03:34:44.084Z,65.50
2018-09-10T03:37:12.512Z,65.60
2018-09-10T03:39:40.880Z,65.20
2018-09-10T03:42:09.380Z,64.90
2018-09-10T03:44:37.896Z,65.60
2018-09-10T03:47:06.367Z,65.30
2018-09-10T03:49:34.740Z,65.80
2018-09-10T03:52:03.171Z,65.40
2018-09-10T03:54:31.545Z,65.10
2018-09-10T03:57:00.020Z,65.40
2018-09-10T03:59:28.716Z,65.20
2018-09-10T04:01:57.226Z,66.00
2018-09-10T04:04:25.675Z,65.50
2018-09-10T04:06:54.154Z,66.00
2018-09-10T04:09:22.545Z,65.40
2018-09-10T04:11:50.917Z,65.10
2018-09-10T04:14:19.411Z,65.70
2018-09-10T04:16:47.917Z,65.40
2018-09-10T04:19:16.441Z,65.10
2018-09-10T04:21:44.844Z,65.30
2018-09-10T04:24:16.402Z,65.20
2018-09-10T04:26:44.874Z,65.00
2018-09-10T04:29:13.264Z,67.00
2018-09-10T04:31:41.813Z,65.40
2018-09-10T04:34:10.700Z,65.10
2018-09-10T04:36:39.123Z,65.50
2018-09-10T04:39:08.484Z,65.30
2018-09-10T04:41:39.812Z,65.00
2018-09-10T04:44:08.512Z,65.60
2018-09-10T04:46:37.896Z,65.10
2018-09-10T04:49:06.750Z,64.90
2018-09-10T04:51:35.466Z,65.40
2018-09-10T04:54:04.172Z,65.80
2018-09-10T04:56:32.642Z,65.20
2018-09-10T04:59:01.443Z,65.10
2018-09-10T05:01:29.977Z,65.20
2018-09-10T05:03:58.476Z,65.80
2018-09-10T05:06:26.888Z,65.60
2018-09-10T05:08:55.612Z,65.60
2018-09-10T05:11:24.024Z,66.00
2018-09-10T05:13:52.781Z,65.00
2018-09-10T05:16:21.276Z,65.30
2018-09-10T05:18:49.872Z,66.00
2018-09-10T05:21:18.303Z,65.30
2018-09-10T05:23:46.669Z,65.20
2018-09-10T05:26:15.144Z,65.30
2018-09-10T05:28:43.644Z,66.80
2018-09-10T05:31:12.117Z,65.10
2018-09-10T05:33:40.652Z,65.20
2018-09-10T05:36:09.116Z,64.90
2018-09-10T05:38:37.545Z,65.20
2018-09-10T05:41:06.033Z,65.60
2018-09-10T05:43:34.495Z,65.00
2018-09-10T05:46:03.047Z,65.40
2018-09-10T05:48:31.725Z,65.20
2018-09-10T05:51:00.236Z,65.90
2018-09-10T05:53:28.860Z,65.00
2018-09-10T05:55:57.310Z,65.00
2018-09-10T05:58:25.756Z,65.20
2018-09-10T06:00:54.317Z,65.60
2018-09-10T06:03:22.764Z,65.50
2018-09-10T06:05:51.275Z,65.10
2018-09-10T06:08:19.747Z,65.30
2018-09-10T06:10:48.216Z,65.10
2018-09-10T06:13:16.689Z,65.70
2018-09-10T06:15:45.212Z,65.60
2018-09-10T06:18:13.681Z,65.60
2018-09-10T06:20:42.406Z,65.90
2018-09-10T06:23:10.809Z,66.40
2018-09-10T06:25:39.288Z,66.80
2018-09-10T06:28:07.702Z,65.80
2018-09-10T06:30:36.236Z,65.20
2018-09-10T06:33:04.835Z,65.20
2018-09-10T06:35:33.262Z,66.90
2018-09-10T06:38:01.731Z,65.40
2018-09-10T06:40:30.214Z,65.30
2018-09-10T06:42:58.640Z,65.70
2018-09-10T06:45:27.115Z,66.30
2018-09-10T06:47:55.613Z,66.20
2018-09-10T06:50:23.980Z,65.80
2018-09-10T06:52:52.597Z,67.20
2018-09-10T06:55:21.276Z,65.70
2018-09-10T06:57:49.932Z,65.50
2018-09-10T07:00:18.804Z,65.40
2018-09-10T07:02:47.340Z,65.90
2018-09-10T07:05:16.052Z,65.50
2018-09-10T07:07:44.518Z,65.90
2018-09-10T07:10:12.984Z,65.50
2018-09-10T07:12:41.662Z,65.50
2018-09-10T07:15:10.296Z,65.80
2018-09-10T07:17:38.806Z,65.50
2018-09-10T07:20:08.067Z,65.90
2018-09-10T07:22:36.991Z,66.20
2018-09-10T07:25:05.654Z,66.00
2018-09-10T07:27:34.068Z,66.10
2018-09-10T07:30:02.652Z,66.80
2018-09-10T07:32:31.116Z,66.30
2018-09-10T07:34:59.837Z,65.90
2018-09-10T07:37:28.311Z,66.90
2018-09-10T07:39:56.753Z,67.00
2018-09-10T07:42:25.331Z,67.00
2018-09-10T07:44:53.728Z,68.30
2018-09-10T07:47:22.201Z,66.90
2018-09-10T07:49:50.808Z,66.60
2018-09-10T07:52:19.758Z,67.00
2018-09-10T07:54:48.501Z,67.40
2018-09-10T07:57:16.931Z,66.50
2018-09-10T07:59:45.847Z,66.80
2018-09-10T08:02:14.636Z,66.30
2018-09-10T08:04:43.266Z,66.40
2018-09-10T08:07:11.670Z,66.60
2018-09-10T08:09:40.317Z,66.40
2018-09-10T08:12:08.640Z,66.30
2018-09-10T08:14:37.652Z,66.50
2018-09-10T08:17:06.436Z,66.50
2018-09-10T08:19:34.967Z,66.90
2018-09-10T08:22:03.394Z,66.90
2018-09-10T08:24:32.183Z,67.50
2018-09-10T08:27:00.576Z,67.40
2018-09-10T08:29:29.043Z,66.70
2018-09-10T08:31:57.410Z,67.30
2018-09-10T08:34:25.983Z,68.60
2018-09-10T08:36:54.629Z,67.10
2018-09-10T08:39:23.171Z,68.30
2018-09-10T08:41:51.668Z,69.40
2018-09-10T08:44:20.061Z,69.70
2018-09-10T08:46:48.765Z,67.60
2018-09-10T08:49:17.273Z,68.80
2018-09-10T08:51:45.747Z,68.10
2018-09-10T08:54:14.361Z,67.80
2018-09-10T08:56:42.711Z,69.10
2018-09-10T08:59:11.192Z,68.00
2018-09-10T09:01:39.680Z,68.90
2018-09-10T09:04:08.183Z,67.60
2018-09-10T09:06:36.555Z,67.70
2018-09-10T09:09:06.533Z,67.30
2018-09-10T09:11:34.964Z,67.30
2018-09-10T09:14:03.516Z,68.00
2018-09-10T09:16:32.189Z,67.90
2018-09-10T09:19:00.908Z,68.00
2018-09-10T09:21:29.345Z,67.90
2018-09-10T09:23:58.664Z,67.20
2018-09-10T09:26:27.159Z,67.00
2018-09-10T09:28:55.660Z,68.00
2018-09-10T09:31:24.161Z,67.10
2018-09-10T09:33:53.060Z,68.60
2018-09-10T09:36:26.660Z,67.60
2018-09-10T09:39:00.485Z,68.70
2018-09-10T09:41:34.401Z,67.50
2018-09-10T09:44:08.275Z,67.90
2018-09-10T09:46:36.715Z,68.40
2018-09-10T09:49:05.121Z,67.80
2018-09-10T09:51:33.762Z,67.80
2018-09-10T09:54:02.339Z,68.20
2018-09-10T09:56:30.893Z,68.00
2018-09-10T09:58:59.572Z,67.90
2018-09-10T10:01:33.736Z,68.70
2018-09-10T10:04:07.663Z,67.80
2018-09-10T10:06:36.517Z,68.20
2018-09-10T10:09:11.981Z,69.00
2018-09-10T10:11:41.242Z,69.00
2018-09-10T10:14:10.276Z,67.80
2018-09-10T10:16:39.058Z,68.90
2018-09-10T10:19:07.635Z,68.10
2018-09-10T10:21:36.328Z,68.30
2018-09-10T10:24:04.781Z,68.60
2018-09-10T10:26:33.521Z,68.20
2018-09-10T10:29:01.948Z,68.00
2018-09-10T10:31:30.492Z,68.20
2018-09-10T10:34:00.168Z,68.20
2018-09-10T10:36:28.812Z,68.70
2018-09-10T10:38:57.296Z,68.30
2018-09-10T10:41:25.791Z,68.50
2018-09-10T10:43:54.257Z,68.50
2018-09-10T10:46:22.740Z,67.90
2018-09-10T10:48:51.596Z,68.30
2018-09-10T10:51:20.120Z,68.00
2018-09-10T10:53:48.573Z,68.30
2018-09-10T10:56:17.068Z,68.80
2018-09-10T10:58:45.549Z,68.00
2018-09-10T11:01:14.076Z,68.90
2018-09-10T11:03:42.551Z,68.50
2018-09-10T11:06:11.116Z,68.90
2018-09-10T11:08:39.553Z,68.90
2018-09-10T11:11:08.047Z,68.20
2018-09-10T11:13:36.644Z,68.40
2018-09-10T11:16:05.112Z,68.40
2018-09-10T11:18:33.613Z,68.50
2018-09-10T11:21:02.093Z,68.20
2018-09-10T11:23:30.575Z,68.40
2018-09-10T11:25:59.098Z,68.40
2018-09-10T11:28:27.580Z,68.20
2018-09-10T11:30:55.964Z,68.40
2018-09-10T11:33:24.453Z,68.80
2018-09-10T11:35:58.905Z,68.10
2018-09-10T11:38:27.312Z,68.20
2018-09-10T11:40:55.760Z,68.40
2018-09-10T11:43:24.229Z,68.80
2018-09-10T11:45:52.667Z,68.20
2018-09-10T11:48:21.036Z,68.20
2018-09-10T11:50:49.435Z,68.40
2018-09-10T11:53:17.924Z,67.40
2018-09-10T11:55:46.465Z,67.80
2018-09-10T11:58:14.811Z,67.60
2018-09-10T12:00:43.369Z,68.00
2018-09-10T12:03:11.864Z,67.90
2018-09-10T12:05:40.255Z,68.50
2018-09-10T12:08:08.776Z,68.30
2018-09-10T12:10:37.270Z,68.00
2018-09-10T12:13:05.652Z,68.30
2018-09-10T12:15:34.033Z,68.60
2018-09-10T12:18:02.696Z,68.50
2018-09-10T12:20:31.176Z,68.70
2018-09-10T12:22:59.619Z,68.60
2018-09-10T12:25:28.097Z,68.40
2018-09-10T12:27:56.821Z,68.60
2018-09-10T12:30:25.276Z,68.90
2018-09-10T12:32:53.732Z,68.40
2018-09-10T12:35:22.253Z,68.40
2018-09-10T12:37:51.232Z,68.60
2018-09-10T12:40:19.857Z,68.90
2018-09-10T12:42:48.314Z,68.80
2018-09-10T12:45:16.821Z,68.50
2018-09-10T12:47:45.280Z,68.70
2018-09-10T12:50:13.675Z,68.10
2018-09-10T12:52:42.061Z,68.60
2018-09-10T12:55:10.530Z,68.30
2018-09-10T12:57:38.983Z,68.80
2018-09-10T13:00:08.732Z,69.00
2018-09-10T13:02:38.168Z,68.80
2018-09-10T13:05:06.597Z,68.70
2018-09-10T13:07:35.029Z,68.60
2018-09-10T13:10:03.436Z,68.30
2018-09-10T13:12:31.876Z,68.20
2018-09-10T13:15:00.351Z,69.00
2018-09-10T13:17:28.872Z,68.80
2018-09-10T13:19:57.506Z,68.60
2018-09-10T13:22:26.348Z,68.60
2018-09-10T13:24:54.721Z,68.70
2018-09-10T13:27:23.160Z,68.50
2018-09-10T13:29:51.931Z,68.30
2018-09-10T13:32:20.576Z,68.60
2018-09-10T13:34:49.011Z,67.70
2018-09-10T13:37:17.385Z,67.90
2018-09-10T13:39:46.193Z,68.00
2018-09-10T13:42:14.723Z,68.80
2018-09-10T13:44:43.174Z,68.60
2018-09-10T13:47:11.749Z,68.70
2018-09-10T13:49:40.584Z,68.90
2018-09-10T13:52:09.001Z,68.40
2018-09-10T13:54:37.408Z,68.70
2018-09-10T13:57:05.813Z,68.30
2018-09-10T13:59:34.238Z,68.20
2018-09-10T14:02:03.494Z,68.30
2018-09-10T14:04:32.127Z,68.60
2018-09-10T14:07:01.236Z,68.60
2018-09-10T14:09:29.803Z,68.30
2018-09-10T14:11:58.731Z,68.10
2018-09-10T14:14:27.437Z,68.60
2018-09-10T14:16:55.864Z,68.40
2018-09-10T14:19:24.221Z,68.90
2018-09-10T14:21:52.668Z,68.60
2018-09-10T14:24:21.101Z,69.00
2018-09-10T14:26:49.520Z,68.50
2018-09-10T14:29:18.076Z,68.80
2018-09-10T14:31:46.529Z,68.60
2018-09-10T14:34:15.073Z,68.70
2018-09-10T14:36:44.133Z,68.10
2018-09-10T14:39:12.580Z,68.50
2018-09-10T14:41:41.677Z,68.50
2018-09-10T14:44:10.241Z,68.40
2018-09-10T14:46:39.311Z,68.10
2018-09-10T14:49:07.716Z,68.50
2018-09-10T14:51:36.276Z,68.20
2018-09-10T14:54:04.702Z,68.50
2018-09-10T14:56:33.124Z,68.50
2018-09-10T14:59:01.650Z,68.70
2018-09-10T15:01:30.133Z,68.60
2018-09-10T15:03:58.668Z,68.60
2018-09-10T15:06:27.280Z,68.30
2018-09-10T15:08:55.870Z,68.50
2018-09-10T15:11:24.415Z,68.40
2018-09-10T15:13:52.829Z,68.30
2018-09-10T15:16:21.299Z,67.90
2018-09-10T15:18:50.029Z,68.10
2018-09-10T15:21:18.387Z,68.20
2018-09-10T15:23:46.916Z,68.40
2018-09-10T15:26:15.358Z,68.30
2018-09-10T15:28:44.069Z,68.50
2018-09-10T15:31:12.562Z,68.90
2018-09-10T15:33:40.981Z,68.40
2018-09-10T15:36:09.478Z,68.40
2018-09-10T15:38:37.999Z,68.40
2018-09-10T15:41:06.364Z,68.30
2018-09-10T15:43:34.765Z,68.70
2018-09-10T15:46:03.172Z,68.40
2018-09-10T15:48:31.688Z,68.50
2018-09-10T15:51:00.054Z,68.90
2018-09-10T15:53:28.457Z,68.50
2018-09-10T15:55:57.088Z,68.80
2018-09-10T15:58:25.614Z,69.10
2018-09-10T16:00:54.243Z,68.80
2018-09-10T16:03:22.799Z,68.50
2018-09-10T16:05:51.608Z,68.30
2018-09-10T16:08:20.034Z,68.50
2018-09-10T16:10:48.424Z,68.60
2018-09-10T16:13:16.917Z,68.30
2018-09-10T16:15:45.355Z,68.60
2018-09-10T16:18:13.832Z,68.60
2018-09-10T16:20:42.256Z,68.80
2018-09-10T16:23:10.812Z,68.40
2018-09-10T16:25:39.289Z,68.40
2018-09-10T16:28:07.856Z,68.50
2018-09-10T16:30:36.236Z,68.90
2018-09-10T16:33:04.797Z,68.90
2018-09-10T16:35:33.233Z,69.10
2018-09-10T16:38:01.708Z,69.00
2018-09-10T16:40:30.202Z,69.00
2018-09-10T16:42:58.635Z,69.00
2018-09-10T16:45:27.551Z,69.10
2018-09-10T16:47:55.929Z,69.10
2018-09-10T16:50:24.293Z,69.10
2018-09-10T16:52:52.703Z,69.20
2018-09-10T16:55:21.316Z,69.20
2018-09-10T16:57:49.760Z,69.20
2018-09-10T17:00:18.206Z,69.10
2018-09-10T17:02:46.871Z,69.00
2018-09-10T17:05:15.620Z,69.10
2018-09-10T17:07:44.084Z,69.20
2018-09-10T17:10:12.771Z,69.20
2018-09-10T17:12:41.337Z,69.30
2018-09-10T17:15:09.716Z,69.30
2018-09-10T17:17:38.233Z,69.30
2018-09-10T17:20:06.760Z,69.30
2018-09-10T17:22:35.204Z,69.40
2018-09-10T17:25:03.629Z,69.40
2018-09-10T17:27:32.090Z,69.40
2018-09-10T17:30:00.580Z,69.40
2018-09-10T17:32:29.078Z,69.40
2018-09-10T17:34:57.588Z,69.40
2018-09-10T17:37:26.031Z,69.50
2018-09-10T17:39:54.567Z,69.40
2018-09-10T17:42:22.940Z,69.50
2018-09-10T17:44:51.524Z,69.50
2018-09-10T17:47:19.942Z,69.50
2018-09-10T17:49:48.481Z,69.60
2018-09-10T17:52:16.930Z,69.60
2018-09-10T17:54:45.432Z,69.60
2018-09-10T17:57:13.909Z,69.60
2018-09-10T17:59:42.287Z,69.60
2018-09-10T18:02:10.646Z,69.70
2018-09-10T18:04:39.128Z,69.70
2018-09-10T18:07:07.808Z,69.80
2018-09-10T18:09:36.508Z,69.80
2018-09-10T18:12:04.959Z,69.80
2018-09-10T18:14:33.615Z,69.90
2018-09-10T18:17:02.161Z,70.00
2018-09-10T18:19:30.633Z,70.10
2018-09-10T18:21:59.068Z,70.20
2018-09-10T18:24:27.471Z,70.30
2018-09-10T18:26:56.020Z,70.40
2018-09-10T18:29:34.357Z,70.50
2018-09-10T18:32:02.846Z,70.70
2018-09-10T18:34:31.295Z,70.60
2018-09-10T18:36:59.784Z,70.80
2018-09-10T18:39:28.312Z,70.80
2018-09-10T18:41:56.669Z,70.80
2018-09-10T18:44:25.049Z,71.10
2018-09-10T18:46:53.459Z,71.00
2018-09-10T18:49:22.815Z,71.10
2018-09-10T18:51:51.479Z,71.20
2018-09-10T18:54:19.968Z,71.10
2018-09-10T18:56:48.335Z,71.00
2018-09-10T18:59:17.105Z,71.10
2018-09-10T19:01:45.617Z,71.20
2018-09-10T19:04:14.421Z,71.30
2018-09-10T19:06:42.971Z,71.20
2018-09-10T19:09:12.177Z,71.30
2018-09-10T19:11:40.728Z,71.50
2018-09-10T19:14:09.262Z,71.60
2018-09-10T19:16:37.863Z,71.50
2018-09-10T19:19:06.393Z,71.50
2018-09-10T19:21:34.973Z,71.50
2018-09-10T19:24:03.350Z,71.60
2018-09-10T19:26:31.927Z,71.70
2018-09-10T19:29:00.328Z,71.70
2018-09-10T19:31:28.809Z,71.60
2018-09-10T19:33:57.492Z,71.70
2018-09-10T19:36:25.857Z,71.80
2018-09-10T19:38:54.245Z,71.70
2018-09-10T19:41:22.722Z,71.70
2018-09-10T19:43:51.257Z,71.90
2018-09-10T19:46:19.686Z,71.60
2018-09-10T19:48:48.304Z,71.60
2018-09-10T19:51:17.072Z,71.80
2018-09-10T19:53:45.529Z,71.70
2018-09-10T19:56:14.068Z,71.70
2018-09-10T19:58:42.492Z,71.60
2018-09-10T20:01:11.061Z,71.90
2018-09-10T20:03:39.442Z,71.50
2018-09-10T20:06:08.116Z,71.80
2018-09-10T20:08:36.585Z,71.80
2018-09-10T20:11:05.479Z,71.80
2018-09-10T20:13:34.061Z,72.00
2018-09-10T20:16:02.477Z,71.90
2018-09-10T20:18:30.972Z,71.80
2018-09-10T20:20:59.468Z,71.50
2018-09-10T20:23:28.211Z,70.60
2018-09-10T20:25:56.820Z,71.80
2018-09-10T20:28:25.385Z,71.80
2018-09-10T20:30:53.793Z,71.90
2018-09-10T20:33:22.265Z,71.90
2018-09-10T20:35:50.997Z,71.50
2018-09-10T20:38:19.389Z,71.80
2018-09-10T20:40:47.748Z,71.50
2018-09-10T20:43:16.298Z,71.40
2018-09-10T20:45:44.864Z,71.80
2018-09-10T20:48:13.388Z,71.40
2018-09-10T20:50:41.990Z,71.70
2018-09-10T20:53:10.505Z,71.50
2018-09-10T20:55:39.150Z,71.60
2018-09-10T20:58:07.664Z,71.50
2018-09-10T21:00:36.201Z,71.40
2018-09-10T21:03:04.704Z,71.50
2018-09-10T21:05:33.134Z,70.00
2018-09-10T21:08:01.674Z,71.60
2018-09-10T21:10:30.167Z,71.10
2018-09-10T21:12:58.900Z,71.20
2018-09-10T21:15:27.493Z,71.10
2018-09-10T21:17:56.246Z,71.50
2018-09-10T21:20:24.793Z,71.50
2018-09-10T21:22:53.299Z,71.70
2018-09-10T21:25:21.683Z,71.80
2018-09-10T21:27:50.236Z,71.00
2018-09-10T21:30:18.733Z,71.30
2018-09-10T21:32:47.200Z,71.30
2018-09-10T21:35:15.700Z,71.30
2018-09-10T21:37:44.092Z,71.50
2018-09-10T21:40:12.676Z,71.40
2018-09-10T21:42:41.134Z,71.60
2018-09-10T21:45:09.680Z,71.10
2018-09-10T21:47:38.068Z,71.40
2018-09-10T21:50:06.579Z,71.20
2018-09-10T21:52:35.056Z,71.50
2018-09-10T21:55:03.966Z,70.60
2018-09-10T21:57:32.458Z,71.10
2018-09-10T22:00:00.858Z,71.40
2018-09-10T22:02:29.340Z,71.00
2018-09-10T22:04:58.052Z,71.20
2018-09-10T22:07:26.576Z,71.00
2018-09-10T22:09:55.187Z,71.00
2018-09-10T22:12:23.894Z,71.20
2018-09-10T22:14:52.432Z,71.10
2018-09-10T22:17:20.990Z,71.00
2018-09-10T22:19:49.454Z,71.50
2018-09-10T22:22:17.877Z,71.20
2018-09-10T22:24:46.465Z,70.70
2018-09-10T22:27:15.024Z,71.20
2018-09-10T22:29:43.545Z,71.20
2018-09-10T22:32:11.987Z,71.40
2018-09-10T22:34:40.449Z,71.10
2018-09-10T22:37:08.934Z,71.00
2018-09-10T22:39:37.396Z,70.80
2018-09-10T22:42:06.113Z,70.80
2018-09-10T22:44:34.608Z,70.90
2018-09-10T22:47:03.385Z,70.50
2018-09-10T22:49:31.933Z,71.30
2018-09-10T22:52:00.468Z,71.10
2018-09-10T22:54:29.148Z,71.20
2018-09-10T22:56:57.752Z,70.70
2018-09-10T22:59:26.284Z,70.60
2018-09-10T23:01:55.059Z,71.00
2018-09-10T23:04:23.433Z,71.20
2018-09-10T23:06:51.917Z,71.10
2018-09-10T23:09:20.575Z,70.60
2018-09-10T23:11:49.084Z,70.40
2018-09-10T23:14:17.551Z,70.80
2018-09-10T23:16:46.097Z,70.80
2018-09-10T23:19:14.626Z,71.00
2018-09-10T23:21:43.053Z,70.80
2018-09-10T23:24:11.588Z,70.40
2018-09-10T23:26:40.233Z,71.30
2018-09-10T23:29:08.651Z,71.10
2018-09-10T23:31:37.185Z,70.60
2018-09-10T23:34:05.642Z,71.10
2018-09-10T23:36:34.052Z,70.70
2018-09-10T23:39:02.584Z,70.90
2018-09-10T23:41:31.039Z,70.70
2018-09-10T23:43:59.502Z,71.00
2018-09-10T23:46:27.997Z,70.30
2018-09-10T23:48:56.498Z,71.40
2018-09-10T23:51:24.867Z,70.30
2018-09-10T23:53:53.692Z,70.70
2018-09-10T23:56:22.307Z,71.20
2018-09-10T23:58:51.660Z,70.40
